Lewiston Woodville, North Carolina
Current Conditions -  °F | °C
As of 4:35 PM on Friday 24 Oct 2014 (Local Time) from KASJ Reporting Station
Clear Clear  
Wind Chill: 67°   Ceiling: Unl
Heat Index: 67°   Visibility: 10mi
Dew Point: 46°   Wind: 0mph
Humidity: 46%   Direction: NA
Pressure: 29.94"   Gusts: NA
Location:  36.11°N, 77.18°W
Report Text: KASJ 242035Z AUTO 00000KT 10SM CLR 20/08 A2994 RMK AO2 T01950075
Loading
Personal Weather Stations






























Interactive Weather Map
Tropical Storm Tracking
New forecast layout! Learn more

10-Day Weather Forecast

Advertisements
Track Severe Weather on mobile